Time;durP1;ratioP1;P1;durP2;ratioP2;P2;SDS_P1;SDS_P2;PMS_P1;PMS_P2;Temp;Humidity;BMP_temperature;BMP_pressure;BME280_temperature;BME280_humidity;BME280_pressure;Samples;Min_cycle;Max_cycle;Signal;HPM_P1;HPM_P2
2023/01/10 00:00:37;;;;;;;5.10;1.37;;;;;;;7.78;97.06;100174.19;5053445;28;20438;-67
2023/01/10 00:03:05;;;;;;;4.80;1.50;;;;;;;7.78;96.98;100174.19;5053471;28;20473;-67
2023/01/10 00:05:33;;;;;;;5.13;1.57;;;;;;;7.81;96.98;100185.19;5053240;28;20482;-67
2023/01/10 00:08:00;;;;;;;5.47;1.50;;;;;;;7.83;96.59;100188.41;5052963;28;20927;-67
2023/01/10 00:10:27;;;;;;;5.10;1.23;;;;;;;7.77;96.94;100192.25;5053403;28;20900;-67
2023/01/10 00:15:38;;;;;;;5.93;1.77;;;;;;;7.79;96.94;100216.22;5053015;28;20916;-67
2023/01/10 00:18:05;;;;;;;6.63;1.80;;;;;;;7.80;96.78;100220.56;5053176;28;20545;-66
2023/01/10 00:20:33;;;;;;;6.20;1.50;;;;;;;7.82;97.01;100229.13;5053172;28;20444;-66
2023/01/10 00:23:00;;;;;;;6.70;1.50;;;;;;;7.78;97.29;100223.50;5052762;28;20450;-67
2023/01/10 00:25:27;;;;;;;4.93;1.37;;;;;;;7.83;97.15;100226.16;5053016;28;20520;-67
2023/01/10 00:28:00;;;;;;;5.30;1.80;;;;;;;7.83;97.12;100234.25;5052999;28;20472;-67
2023/01/10 00:30:27;;;;;;;6.20;1.77;;;;;;;7.84;96.24;100241.25;5052690;28;20441;-67
2023/01/10 00:32:55;;;;;;;5.40;1.70;;;;;;;7.78;96.32;100238.91;5053003;28;20445;-67
2023/01/10 00:35:22;;;;;;;7.50;2.47;;;;;;;7.82;95.84;100238.03;5052651;28;20443;-67
2023/01/10 00:37:50;;;;;;;6.70;2.00;;;;;;;7.86;96.40;100237.44;5052758;28;20478;-67
2023/01/10 00:40:17;;;;;;;4.73;1.37;;;;;;;7.83;96.15;100247.75;5052954;28;20533;-67
2023/01/10 00:45:28;;;;;;;4.70;1.30;;;;;;;7.79;96.95;100249.41;5052691;28;20977;-67
2023/01/10 00:47:54;;;;;;;7.20;2.10;;;;;;;7.86;96.48;100257.13;5052535;28;21021;-67
2023/01/10 00:50:21;;;;;;;7.00;1.90;;;;;;;7.82;96.55;100256.09;5052562;28;20974;-67
2023/01/10 00:52:47;;;;;;;5.97;1.70;;;;;;;7.86;96.13;100261.72;5052833;28;20524;-67
2023/01/10 00:55:15;;;;;;;6.00;1.57;;;;;;;7.85;96.53;100258.22;5052863;28;20434;-67
2023/01/10 00:57:42;;;;;;;5.57;1.33;;;;;;;7.83;96.04;100263.09;5052419;28;20469;-67
2023/01/10 01:00:11;;;;;;;5.73;1.57;;;;;;;7.81;96.28;100266.09;5052794;28;20545;-67
2023/01/10 01:02:37;;;;;;;7.37;1.50;;;;;;;7.75;97.01;100261.84;5052748;28;20587;-67
2023/01/10 01:05:05;;;;;;;14.90;1.80;;;;;;;7.68;97.36;100276.78;5052308;28;21070;-67
2023/01/10 01:07:31;;;;;;;8.97;2.00;;;;;;;7.66;97.35;100279.78;5052605;28;20438;-67
2023/01/10 01:12:44;;;;;;;4.77;1.23;;;;;;;7.58;97.09;100275.81;5052750;28;20421;-67
2023/01/10 01:15:11;;;;;;;7.00;1.53;;;;;;;7.53;97.70;100291.25;5052702;28;20440;-67
2023/01/10 01:17:38;;;;;;;5.37;1.47;;;;;;;7.60;97.39;100286.31;5052185;28;20775;-67
2023/01/10 01:20:05;;;;;;;8.70;2.00;;;;;;;7.57;97.47;100297.69;5052546;28;20442;-67
2023/01/10 01:22:32;;;;;;;5.47;1.47;;;;;;;7.54;97.31;100290.97;5052465;28;20477;-67
2023/01/10 01:24:58;;;;;;;5.30;1.27;;;;;;;7.49;97.87;100301.00;5052121;28;21024;-67
2023/01/10 01:27:25;;;;;;;11.80;1.87;;;;;;;7.46;97.76;100304.25;5052477;28;20467;-67
2023/01/10 01:29:53;;;;;;;5.07;1.50;;;;;;;7.50;97.32;100308.00;5052450;28;20446;-67
2023/01/10 01:32:20;;;;;;;6.00;1.50;;;;;;;7.51;97.37;100312.28;5052203;28;20958;-67
2023/01/10 01:34:47;;;;;;;4.90;1.43;;;;;;;7.44;98.04;100318.03;5052389;28;20456;-67
2023/01/10 01:37:13;;;;;;;5.30;1.67;;;;;;;7.42;98.21;100325.59;5051950;28;20448;-67
2023/01/10 01:39:40;;;;;;;5.07;1.43;;;;;;;7.36;98.60;100331.31;5052031;28;20962;-67
2023/01/10 01:42:06;;;;;;;5.63;1.40;;;;;;;7.41;98.29;100342.03;5053668;28;20536;-67
2023/01/10 01:44:39;;;;;;;4.40;1.00;;;;;;;7.37;98.56;100339.13;5055950;28;20444;-67
2023/01/10 01:47:14;;;;;;;5.57;1.23;;;;;;;7.34;99.00;100347.75;5055914;28;20428;-67
2023/01/10 01:49:44;;;;;;;5.50;1.60;;;;;;;7.33;99.19;100346.16;5055896;28;20509;-67
2023/01/10 01:52:15;;;;;;;5.70;1.40;;;;;;;7.31;99.22;100343.75;5055810;28;20442;-67
2023/01/10 01:54:42;;;;;;;5.13;1.37;;;;;;;7.29;99.03;100348.63;5055507;28;20905;-67
2023/01/10 01:57:12;;;;;;;5.60;1.77;;;;;;;7.16;99.52;100345.78;5055470;28;20458;-67
2023/01/10 01:59:42;;;;;;;5.87;1.70;;;;;;;7.10;99.96;100349.63;5055332;28;20489;-67
2023/01/10 02:02:18;;;;;;;6.67;1.80;;;;;;;7.17;99.31;100352.78;5055604;28;20529;-67
2023/01/10 02:04:51;;;;;;;5.47;1.97;;;;;;;7.12;99.90;100359.00;5055232;28;20966;-67
2023/01/10 02:07:18;;;;;;;6.33;2.20;;;;;;;7.18;99.99;100360.59;5070901;22;20479;-74
2023/01/10 02:09:50;;;;;;;6.80;1.70;;;;;;;7.19;99.92;100362.19;5055882;28;20462;-72
2023/01/10 02:12:16;;;;;;;6.77;1.93;;;;;;;7.24;100.00;100364.84;5055748;28;20749;-72
2023/01/10 02:14:45;;;;;;;6.03;2.00;;;;;;;7.30;99.47;100369.09;5055401;28;20482;-73
2023/01/10 02:17:13;;;;;;;5.60;1.73;;;;;;;7.33;99.15;100376.59;5055574;28;20466;-68
2023/01/10 02:19:50;;;;;;;6.50;1.90;;;;;;;7.30;99.60;100382.56;5055322;28;20469;-68
2023/01/10 02:22:46;;;;;;;5.50;1.70;;;;;;;7.25;100.00;100387.97;5055177;28;20977;-72
2023/01/10 02:25:47;;;;;;;4.20;0.80;;;;;;;7.28;100.00;100386.63;5056158;28;20497;-75
2023/01/10 02:28:47;;;;;;;4.90;1.33;;;;;;;7.29;100.00;100383.63;5022311;28;20466;-74
2023/01/10 02:31:33;;;;;;;5.70;1.70;;;;;;;7.26;100.00;100388.78;5055277;28;20446;-74
2023/01/10 02:34:08;;;;;;;6.57;1.50;;;;;;;7.32;100.00;100390.34;5055342;28;20433;-73
2023/01/10 02:36:44;;;;;;;4.97;1.10;;;;;;;7.34;100.00;100397.06;5055340;28;20425;-74
2023/01/10 02:39:16;;;;;;;6.07;1.50;;;;;;;7.31;100.00;100403.03;5055724;28;20522;-72
2023/01/10 02:41:50;;;;;;;6.67;1.93;;;;;;;7.25;100.00;100403.34;5055063;28;20992;-74
2023/01/10 02:44:22;;;;;;;5.00;1.33;;;;;;;7.18;100.00;100414.47;5054839;28;20801;-73
2023/01/10 02:46:49;;;;;;;6.00;1.77;;;;;;;7.21;100.00;100413.88;5055303;28;20504;-74
2023/01/10 02:49:18;;;;;;;6.30;1.53;;;;;;;7.20;100.00;100423.06;5055515;28;20446;-75
2023/01/10 02:51:44;;;;;;;5.70;1.43;;;;;;;7.08;100.00;100419.91;5055124;28;20446;-74
2023/01/10 02:54:15;;;;;;;4.80;1.63;;;;;;;7.03;100.00;100417.25;5054682;28;20451;-74
2023/01/10 02:57:16;;;;;;;5.70;1.70;;;;;;;7.03;100.00;100414.56;5054706;28;20900;-75
2023/01/10 03:00:11;;;;;;;7.87;2.00;;;;;;;7.01;100.00;100424.84;5055036;28;20422;-75
2023/01/10 03:02:48;;;;;;;4.70;1.03;;;;;;;6.97;100.00;100424.59;5041904;28;20456;-75
2023/01/10 03:05:28;;;;;;;9.07;1.97;;;;;;;6.99;100.00;100443.13;5054493;28;20872;-75
2023/01/10 03:08:06;;;;;;;6.40;2.20;;;;;;;7.00;100.00;100444.78;5054523;28;20535;-74
2023/01/10 03:10:42;;;;;;;8.57;2.10;;;;;;;6.95;100.00;100451.00;5054651;28;20435;-73
2023/01/10 03:13:15;;;;;;;6.60;1.93;;;;;;;6.95;100.00;100450.16;5054852;28;20462;-74
2023/01/10 03:15:43;;;;;;;9.23;1.70;;;;;;;6.97;100.00;100458.78;5054739;28;20425;-73
2023/01/10 03:18:16;;;;;;;7.83;2.30;;;;;;;6.98;100.00;100466.56;5054644;28;20513;-73
2023/01/10 03:20:47;;;;;;;6.57;1.60;;;;;;;6.91;100.00;100470.69;5054321;28;20477;-73
2023/01/10 03:23:16;;;;;;;6.67;1.73;;;;;;;6.86;100.00;100479.56;5054406;28;20936;-74
2023/01/10 03:25:44;;;;;;;5.90;1.93;;;;;;;6.88;100.00;100479.31;5054527;28;20580;-74
2023/01/10 03:28:14;;;;;;;5.97;1.80;;;;;;;6.92;100.00;100486.56;5054312;28;20549;-75
2023/01/10 03:30:44;;;;;;;6.43;1.80;;;;;;;6.95;100.00;100496.78;5054070;28;20975;-72
2023/01/10 03:33:13;;;;;;;7.43;1.70;;;;;;;6.92;100.00;100494.63;5054194;28;20485;-73
2023/01/10 03:35:59;;;;;;;7.40;1.87;;;;;;;6.91;100.00;100511.06;5054494;28;20529;-74
2023/01/10 03:38:31;;;;;;;7.20;2.10;;;;;;;6.97;100.00;100507.25;5054369;28;20476;-74
2023/01/10 03:41:05;;;;;;;7.87;2.20;;;;;;;6.98;100.00;100511.56;5053837;28;20437;-74
2023/01/10 03:46:30;;;;;;;6.10;2.27;;;;;;;7.04;100.00;100532.00;5013456;28;20482;-74
2023/01/10 03:48:59;;;;;;;7.00;1.90;;;;;;;7.00;100.00;100528.25;5053986;28;20419;-74
2023/01/10 03:51:29;;;;;;;6.60;2.27;;;;;;;6.98;100.00;100543.88;5054042;28;20521;-73
2023/01/10 03:53:59;;;;;;;6.83;1.80;;;;;;;6.89;100.00;100546.34;5053676;28;20919;-73
2023/01/10 03:56:26;;;;;;;7.67;2.00;;;;;;;6.95;100.00;100549.78;5053763;28;20422;-75
2023/01/10 03:58:53;;;;;;;7.23;1.70;;;;;;;6.99;100.00;100556.22;5053583;28;20943;-73
2023/01/10 04:01:19;;;;;;;7.00;2.10;;;;;;;7.01;100.00;100556.78;5053488;28;20552;-73
2023/01/10 04:03:46;;;;;;;14.80;3.10;;;;;;;6.98;100.00;100565.41;5053643;28;20474;-74
2023/01/10 04:06:13;;;;;;;9.17;2.57;;;;;;;6.98;100.00;100568.09;5053149;28;20941;-73
2023/01/10 04:08:40;;;;;;;6.40;2.37;;;;;;;6.98;100.00;100574.28;5053091;28;20524;-73
2023/01/10 04:11:07;;;;;;;6.50;2.47;;;;;;;6.94;100.00;100585.88;5053604;28;20529;-75
2023/01/10 04:13:34;;;;;;;8.67;2.50;;;;;;;6.92;100.00;100578.09;5053530;28;20816;-74
2023/01/10 04:16:00;;;;;;;8.67;2.70;;;;;;;6.85;100.00;100591.03;5053595;28;20442;-74
2023/01/10 04:18:27;;;;;;;9.70;3.07;;;;;;;6.92;100.00;100596.13;5053430;28;20498;-74
2023/01/10 04:20:54;;;;;;;7.67;2.50;;;;;;;6.90;100.00;100598.28;5053417;28;20449;-74
2023/01/10 04:23:20;;;;;;;7.53;2.40;;;;;;;6.86;100.00;100605.31;5053210;28;20478;-74
2023/01/10 04:25:48;;;;;;;8.80;2.40;;;;;;;6.84;100.00;100608.28;5053528;28;20514;-73
2023/01/10 04:28:15;;;;;;;16.70;3.00;;;;;;;6.82;100.00;100608.56;5053447;28;20462;-73
2023/01/10 04:30:41;;;;;;;8.17;2.37;;;;;;;6.76;100.00;100616.91;5053154;28;20444;-74
2023/01/10 04:33:10;;;;;;;8.50;2.40;;;;;;;6.79;100.00;100622.56;5053030;28;20533;-74
2023/01/10 04:35:36;;;;;;;8.63;2.37;;;;;;;6.83;100.00;100628.22;5053493;28;20449;-74
2023/01/10 04:38:03;;;;;;;12.37;3.80;;;;;;;6.83;100.00;100639.78;5052910;28;21002;-73
2023/01/10 04:40:30;;;;;;;5.90;2.13;;;;;;;6.77;100.00;100640.91;5053281;28;20468;-74
2023/01/10 04:42:58;;;;;;;9.20;2.93;;;;;;;6.69;100.00;100649.53;5053334;28;20453;-74
2023/01/10 04:45:24;;;;;;;6.30;2.37;;;;;;;6.74;100.00;100654.88;5053277;28;20482;-73
2023/01/10 04:47:54;;;;;;;16.70;3.87;;;;;;;6.79;100.00;100667.53;5053111;28;20929;-74
2023/01/10 04:50:21;;;;;;;11.87;3.30;;;;;;;6.74;100.00;100662.97;5052856;28;20450;-73
2023/01/10 04:52:48;;;;;;;7.90;2.80;;;;;;;6.74;100.00;100662.97;5053021;28;20961;-74
2023/01/10 04:55:14;;;;;;;8.63;3.37;;;;;;;6.81;100.00;100676.13;5052852;28;20485;-73
2023/01/10 04:57:41;;;;;;;6.40;2.23;;;;;;;6.82;100.00;100681.25;5052871;28;20474;-74
2023/01/10 05:00:11;;;;;;;10.30;3.00;;;;;;;6.77;100.00;100688.50;5053016;28;20951;-73
2023/01/10 05:02:42;;;;;;;19.73;3.50;;;;;;;6.84;100.00;100689.03;5053531;28;20521;-73
2023/01/10 05:05:10;;;;;;;15.23;3.50;;;;;;;6.83;100.00;100687.44;5052800;28;20897;-73
2023/01/10 05:07:37;;;;;;;8.13;3.33;;;;;;;6.83;100.00;100704.41;5052450;28;20587;-74
2023/01/10 05:10:04;;;;;;;8.27;2.47;;;;;;;6.85;100.00;100695.22;5053038;28;20836;-74
2023/01/10 05:12:31;;;;;;;10.60;3.00;;;;;;;6.86;100.00;100710.31;5052837;28;20446;-74
2023/01/10 05:14:57;;;;;;;7.20;2.90;;;;;;;6.85;100.00;100706.81;5052855;28;20449;-73
2023/01/10 05:17:25;;;;;;;9.00;3.00;;;;;;;6.85;100.00;100714.06;5056398;28;20550;-73
2023/01/10 05:19:52;;;;;;;21.83;4.30;;;;;;;6.90;100.00;100722.13;5056385;28;20961;-73
2023/01/10 05:22:18;;;;;;;25.13;5.90;;;;;;;6.94;100.00;100728.59;5056648;28;20438;-74
2023/01/10 05:24:45;;;;;;;10.70;4.60;;;;;;;7.00;100.00;100739.09;5056356;28;20473;-73
2023/01/10 05:27:11;;;;;;;13.10;3.93;;;;;;;7.02;100.00;100738.81;5056592;28;20490;-73
2023/01/10 05:29:38;;;;;;;19.80;3.93;;;;;;;7.05;100.00;100740.97;5056376;28;20450;-73
2023/01/10 05:32:05;;;;;;;9.80;3.13;;;;;;;7.04;100.00;100748.25;5056612;28;20477;-73
2023/01/10 05:34:33;;;;;;;9.07;3.80;;;;;;;7.03;100.00;100745.81;5056508;28;20474;-73
2023/01/10 05:36:59;;;;;;;7.30;3.20;;;;;;;7.10;100.00;100750.91;5056430;28;20545;-74
2023/01/10 05:39:26;;;;;;;8.03;3.00;;;;;;;7.10;100.00;100759.81;5056250;28;20853;-74
2023/01/10 05:41:53;;;;;;;13.00;3.00;;;;;;;7.09;100.00;100766.28;5056042;28;20438;-74
2023/01/10 05:44:19;;;;;;;7.53;2.93;;;;;;;7.12;100.00;100762.22;5055652;28;20496;-74
2023/01/10 05:46:46;;;;;;;9.93;3.90;;;;;;;7.14;100.00;100771.66;5055836;28;20580;-75
2023/01/10 05:49:12;;;;;;;11.47;3.60;;;;;;;7.13;100.00;100780.81;5055826;28;20474;-74
2023/01/10 05:51:41;;;;;;;12.97;3.80;;;;;;;7.19;100.00;100784.28;5055618;28;20442;-73
2023/01/10 05:54:07;;;;;;;7.60;2.73;;;;;;;7.20;100.00;100789.41;5056049;28;20446;-74
2023/01/10 05:56:34;;;;;;;8.30;3.07;;;;;;;7.17;100.00;100784.59;5055914;28;20450;-74
2023/01/10 05:59:00;;;;;;;10.13;3.67;;;;;;;7.18;100.00;100794.28;5056051;28;20473;-73
2023/01/10 06:01:27;;;;;;;9.83;4.00;;;;;;;7.19;100.00;100798.56;5055995;28;20437;-73
2023/01/10 06:03:54;;;;;;;8.53;2.73;;;;;;;7.19;100.00;100805.84;5055796;28;20527;-73
2023/01/10 06:06:20;;;;;;;10.33;3.27;;;;;;;7.13;100.00;100817.69;5055970;28;20487;-74
2023/01/10 06:08:49;;;;;;;10.10;3.17;;;;;;;7.14;100.00;100822.03;5055563;28;20485;-75
2023/01/10 06:11:15;;;;;;;10.40;4.13;;;;;;;7.20;100.00;100826.31;5055772;28;20449;-74
2023/01/10 06:13:42;;;;;;;11.43;3.27;;;;;;;7.21;100.00;100830.63;5055786;28;20481;-74
2023/01/10 06:16:08;;;;;;;15.97;3.80;;;;;;;7.23;100.00;100833.84;5055524;28;20438;-68
2023/01/10 06:18:35;;;;;;;10.33;3.03;;;;;;;7.20;100.00;100832.50;5055112;28;21010;-70
2023/01/10 06:21:02;;;;;;;18.90;3.97;;;;;;;7.17;100.00;100841.16;5055207;28;20485;-72
2023/01/10 06:23:29;;;;;;;8.80;3.23;;;;;;;7.17;100.00;100841.16;5055473;28;20447;-73
2023/01/10 06:25:57;;;;;;;17.07;3.23;;;;;;;7.19;100.00;100844.38;5055297;28;20438;-69
2023/01/10 06:28:23;;;;;;;12.67;3.47;;;;;;;7.25;100.00;100850.53;5054495;28;20518;-69
2023/01/10 06:30:50;;;;;;;10.80;3.60;;;;;;;7.27;100.00;100864.56;5055283;28;20446;-69
2023/01/10 06:33:17;;;;;;;11.23;3.13;;;;;;;7.27;100.00;100859.97;5055458;28;20875;-69
2023/01/10 06:35:45;;;;;;;7.60;3.10;;;;;;;7.26;100.00;100863.75;5055079;28;20537;-68
2023/01/10 06:38:12;;;;;;;9.80;3.10;;;;;;;7.28;100.00;100871.56;5054761;28;20462;-70
2023/01/10 06:40:38;;;;;;;7.57;2.50;;;;;;;7.33;100.00;100874.25;5055091;28;20499;-69
2023/01/10 06:43:07;;;;;;;10.73;3.13;;;;;;;7.36;100.00;100886.38;5054670;28;20902;-69
2023/01/10 06:45:33;;;;;;;12.00;3.80;;;;;;;7.39;100.00;100893.91;5054677;28;20522;-71
2023/01/10 06:48:00;;;;;;;9.87;3.00;;;;;;;7.36;100.00;100897.16;5054610;28;20569;-67
2023/01/10 06:50:28;;;;;;;9.27;3.23;;;;;;;7.31;100.00;100896.09;5054593;28;20438;-69
2023/01/10 06:52:56;;;;;;;12.27;3.70;;;;;;;7.30;100.00;100897.16;5054785;28;20438;-68
2023/01/10 06:55:23;;;;;;;8.97;3.37;;;;;;;7.19;100.00;100906.31;5054770;28;20469;-66
2023/01/10 06:57:49;;;;;;;8.27;2.90;;;;;;;7.19;100.00;100894.75;5054679;28;20813;-67
2023/01/10 07:00:18;;;;;;;9.07;2.93;;;;;;;7.15;100.00;100904.44;5054650;28;20450;-69
2023/01/10 07:02:45;;;;;;;15.00;3.80;;;;;;;7.16;100.00;100912.25;5054654;28;20442;-69
2023/01/10 07:05:11;;;;;;;10.83;3.80;;;;;;;7.18;100.00;100918.19;5054636;28;20434;-70
2023/01/10 07:07:38;;;;;;;10.50;4.10;;;;;;;7.14;100.00;100927.88;5054223;28;20490;-71
2023/01/10 07:10:06;;;;;;;14.33;3.70;;;;;;;7.07;100.00;100930.81;5054496;28;20450;-71
2023/01/10 07:12:32;;;;;;;19.17;5.40;;;;;;;7.01;100.00;100941.88;5054508;28;20947;-71
2023/01/10 07:14:59;;;;;;;12.20;3.53;;;;;;;6.96;100.00;100936.50;5054501;28;20529;-71
2023/01/10 07:17:27;;;;;;;12.50;3.70;;;;;;;6.90;100.00;100951.81;5054676;28;20465;-71
2023/01/10 07:19:53;;;;;;;13.63;4.00;;;;;;;6.88;100.00;100953.97;5054579;28;20796;-71
2023/01/10 07:22:20;;;;;;;9.83;3.63;;;;;;;6.92;100.00;100963.13;5054206;28;20531;-71
2023/01/10 07:24:47;;;;;;;8.77;3.10;;;;;;;6.91;100.00;100964.22;5054490;28;20435;-70
2023/01/10 07:27:13;;;;;;;14.00;4.23;;;;;;;6.92;100.00;100971.22;5054087;28;20576;-70
2023/01/10 07:29:40;;;;;;;8.90;3.93;;;;;;;6.94;100.00;100973.63;5053860;28;21019;-71
2023/01/10 07:32:07;;;;;;;9.60;3.60;;;;;;;6.96;100.00;100966.13;5054131;28;20438;-70
2023/01/10 07:34:34;;;;;;;10.57;3.93;;;;;;;7.02;100.00;100981.19;5053841;28;20994;-70
2023/01/10 07:37:01;;;;;;;12.07;3.90;;;;;;;6.98;100.00;100982.81;5053999;28;20492;-71
2023/01/10 07:39:28;;;;;;;9.13;3.77;;;;;;;7.02;100.00;100991.97;5053177;28;20449;-71
2023/01/10 07:41:55;;;;;;;14.93;4.10;;;;;;;7.07;100.00;100995.47;5053877;28;20521;-70
2023/01/10 07:44:21;;;;;;;12.37;4.30;;;;;;;6.98;100.00;101005.16;5053899;28;20450;-70
2023/01/10 07:46:48;;;;;;;14.77;5.60;;;;;;;6.98;100.00;101002.47;5053755;28;20511;-72
2023/01/10 07:49:15;;;;;;;9.97;3.77;;;;;;;7.00;100.00;101010.28;5053827;28;20438;-70
2023/01/10 07:51:42;;;;;;;12.80;4.60;;;;;;;7.02;100.00;101014.31;5053890;28;20787;-70
2023/01/10 07:54:09;;;;;;;14.17;4.07;;;;;;;6.99;100.00;101016.72;5053928;28;20482;-70
2023/01/10 07:56:36;;;;;;;10.27;3.70;;;;;;;7.05;100.00;101021.06;5053707;28;20440;-71
2023/01/10 07:59:02;;;;;;;13.00;4.50;;;;;;;7.04;100.00;101031.03;5053767;28;20476;-71
2023/01/10 08:01:29;;;;;;;12.00;4.33;;;;;;;7.14;100.00;101035.63;5053647;28;20450;-70
2023/01/10 08:03:57;;;;;;;9.70;4.00;;;;;;;7.14;100.00;101034.81;5053139;28;20959;-71
2023/01/10 08:06:23;;;;;;;10.77;4.23;;;;;;;7.20;100.00;101039.94;5053409;28;20442;-72
2023/01/10 08:08:51;;;;;;;9.40;3.80;;;;;;;7.21;100.00;101038.06;5077420;22;21002;-68
2023/01/10 08:11:18;;;;;;;10.10;3.33;;;;;;;7.24;100.00;101049.09;5053251;28;20439;-68
2023/01/10 08:13:44;;;;;;;8.90;4.47;;;;;;;7.26;100.00;101052.34;5053278;28;20473;-68
2023/01/10 08:16:11;;;;;;;11.07;4.60;;;;;;;7.31;100.00;101059.63;5053211;28;20462;-68
2023/01/10 08:18:41;;;;;;;9.97;3.97;;;;;;;7.34;100.00;101059.88;5052750;28;20490;-68
2023/01/10 08:21:07;;;;;;;8.53;3.47;;;;;;;7.25;100.00;101058.81;5052825;28;20820;-67
2023/01/10 08:23:34;;;;;;;11.33;4.27;;;;;;;7.31;100.00;101060.44;5053168;28;20452;-68
2023/01/10 08:26:02;;;;;;;10.00;4.53;;;;;;;7.28;100.00;101068.25;5053088;28;20466;-68
2023/01/10 08:28:29;;;;;;;13.20;4.07;;;;;;;7.26;100.00;101082.00;5053230;28;20516;-67
2023/01/10 08:30:56;;;;;;;6.87;2.97;;;;;;;7.23;100.00;101087.09;5053037;28;20432;-68
2023/01/10 08:33:23;;;;;;;9.33;4.00;;;;;;;7.17;100.00;101080.06;5053043;28;20450;-67
2023/01/10 08:35:51;;;;;;;9.60;3.30;;;;;;;7.20;100.00;101088.44;5052981;28;20444;-68
2023/01/10 08:38:17;;;;;;;11.17;3.90;;;;;;;7.26;100.00;101089.25;5053235;28;20545;-68
2023/01/10 08:40:44;;;;;;;10.20;4.00;;;;;;;7.27;100.00;101090.88;5052959;28;20445;-67
2023/01/10 08:43:13;;;;;;;11.73;4.20;;;;;;;7.26;100.00;101095.47;5052605;28;20521;-68
2023/01/10 08:45:40;;;;;;;9.27;3.40;;;;;;;7.32;100.00;101098.97;5052912;28;20443;-66
2023/01/10 08:48:08;;;;;;;14.33;3.63;;;;;;;7.30;100.00;101096.56;5052541;28;20861;-68
2023/01/10 08:50:35;;;;;;;8.43;3.60;;;;;;;7.34;100.00;101102.19;5053082;28;20497;-68
2023/01/10 08:53:02;;;;;;;12.10;4.63;;;;;;;7.45;100.00;101108.44;5056988;28;20534;-68
2023/01/10 08:55:30;;;;;;;9.27;3.97;;;;;;;7.45;100.00;101103.84;5056603;28;20943;-68
2023/01/10 08:57:59;;;;;;;14.27;5.27;;;;;;;7.37;100.00;101106.25;5056534;28;20462;-68
2023/01/10 09:00:27;;;;;;;15.00;5.17;;;;;;;7.31;100.00;101110.84;5056478;28;20469;-68
2023/01/10 09:02:54;;;;;;;12.90;4.00;;;;;;;7.39;100.00;101112.19;5056446;28;20869;-68
2023/01/10 09:05:21;;;;;;;10.50;3.90;;;;;;;7.40;100.00;101122.72;5056757;28;20448;-68
2023/01/10 09:07:47;;;;;;;12.73;4.97;;;;;;;7.37;100.00;101127.81;5056046;28;20543;-68
2023/01/10 09:10:14;;;;;;;11.17;3.37;;;;;;;7.27;100.00;101139.38;5056599;28;20502;-67
2023/01/10 09:12:55;;;;;;;11.83;4.17;;;;;;;7.30;100.00;101144.22;5056296;28;21010;-68
2023/01/10 09:15:22;;;;;;;6.93;3.20;;;;;;;7.32;100.00;101148.28;5056221;28;20430;-68
2023/01/10 09:17:53;;;;;;;11.13;3.97;;;;;;;7.41;100.00;101158.56;5056103;28;20458;-68
2023/01/10 09:20:20;;;;;;;9.60;3.53;;;;;;;7.37;100.00;101160.97;5056122;28;20445;-68
2023/01/10 09:22:46;;;;;;;9.10;3.53;;;;;;;7.34;100.00;101151.50;5056061;28;20974;-68
2023/01/10 09:25:13;;;;;;;7.37;3.00;;;;;;;7.22;100.00;101156.34;5056317;28;20529;-68
2023/01/10 09:27:40;;;;;;;9.43;3.20;;;;;;;7.23;100.00;101151.75;5055920;28;20513;-68
2023/01/10 09:30:07;;;;;;;11.30;3.67;;;;;;;7.18;100.00;101157.94;5056255;28;20450;-67
2023/01/10 09:32:34;;;;;;;9.47;3.63;;;;;;;7.15;100.00;101152.28;5055923;28;20995;-68
2023/01/10 09:35:02;;;;;;;9.20;3.77;;;;;;;7.10;100.00;101153.06;5055874;28;20473;-68
2023/01/10 09:37:29;;;;;;;9.60;3.90;;;;;;;7.12;100.00;101161.69;5056054;28;20904;-68
2023/01/10 09:39:55;;;;;;;16.47;4.30;;;;;;;7.25;100.00;101157.69;5056070;28;20444;-68
2023/01/10 09:42:35;;;;;;;10.50;3.77;;;;;;;7.36;100.00;101163.94;5055971;28;20442;-68
2023/01/10 09:45:13;;;;;;;10.90;4.07;;;;;;;7.45;100.00;101167.72;5055980;28;20509;-68
2023/01/10 09:47:50;;;;;;;9.30;3.33;;;;;;;7.51;100.00;101180.13;5055516;28;20497;-68
2023/01/10 09:50:28;;;;;;;18.30;3.80;;;;;;;7.56;100.00;101170.16;5055971;28;20426;-68
2023/01/10 09:52:57;;;;;;;13.00;4.20;;;;;;;7.57;100.00;101165.63;5055844;28;20436;-68
2023/01/10 09:55:26;;;;;;;7.63;3.30;;;;;;;7.68;100.00;101169.94;5055764;28;20438;-68
2023/01/10 09:57:55;;;;;;;10.10;3.20;;;;;;;7.68;100.00;101178.03;5055371;28;20458;-68
2023/01/10 10:00:28;;;;;;;18.10;3.73;;;;;;;7.71;100.00;101171.28;5055669;28;20544;-68
2023/01/10 10:02:56;;;;;;;10.40;3.03;;;;;;;7.74;100.00;101170.75;5054446;28;20433;-68
2023/01/10 10:05:27;;;;;;;11.50;4.40;;;;;;;7.77;100.00;101171.03;5055303;28;20448;-68
2023/01/10 10:07:56;;;;;;;11.30;4.57;;;;;;;7.87;100.00;101172.09;5055184;28;20512;-68
2023/01/10 10:10:25;;;;;;;10.37;3.70;;;;;;;7.90;100.00;101174.28;5055441;28;20517;-68
2023/01/10 10:13:05;;;;;;;8.83;3.43;;;;;;;7.92;100.00;101177.50;5055122;28;20442;-68
2023/01/10 10:15:39;;;;;;;7.27;2.80;;;;;;;7.87;100.00;101169.41;5055438;28;20858;-69
2023/01/10 10:18:18;;;;;;;15.20;4.07;;;;;;;7.91;100.00;101176.69;5055237;28;20463;-70
2023/01/10 10:20:56;;;;;;;10.20;3.80;;;;;;;7.98;100.00;101176.44;5055010;28;20888;-67
2023/01/10 10:23:42;;;;;;;12.93;4.10;;;;;;;8.01;100.00;101175.88;5055288;28;20434;-67
2023/01/10 10:26:16;;;;;;;7.00;2.23;;;;;;;8.05;100.00;101187.75;5055299;28;20426;-67
2023/01/10 10:29:01;;;;;;;9.90;2.70;;;;;;;8.09;100.00;101183.44;5055119;28;20568;-67
2023/01/10 10:31:53;;;;;;;10.60;2.90;;;;;;;8.10;100.00;101190.47;5054873;28;20430;-67
2023/01/10 10:34:25;;;;;;;8.60;2.07;;;;;;;8.04;100.00;101200.44;5055104;28;20422;-67
2023/01/10 10:36:55;;;;;;;14.00;3.37;;;;;;;8.01;99.54;101195.63;5055040;28;20450;-67
2023/01/10 10:39:35;;;;;;;12.50;3.10;;;;;;;8.06;98.97;101194.81;5054957;28;20462;-67
2023/01/10 10:42:03;;;;;;;9.10;2.93;;;;;;;8.01;99.45;101200.16;5054644;28;20521;-67
2023/01/10 10:44:39;;;;;;;14.10;3.00;;;;;;;8.07;99.44;101193.72;5054605;28;20529;-68
2023/01/10 10:47:14;;;;;;;14.57;3.03;;;;;;;8.11;99.67;101189.41;5054877;28;20430;-68
2023/01/10 10:49:45;;;;;;;6.97;2.83;;;;;;;8.18;100.00;101200.72;5054691;28;20516;-67
2023/01/10 10:52:21;;;;;;;8.57;2.57;;;;;;;8.24;100.00;101206.94;5054714;28;20521;-67
2023/01/10 10:54:48;;;;;;;8.50;3.63;;;;;;;8.33;100.00;101216.94;5054680;28;20850;-68
2023/01/10 10:57:15;;;;;;;7.90;3.13;;;;;;;8.35;98.51;101224.75;5054598;28;20534;-68
2023/01/10 10:59:46;;;;;;;6.70;2.00;;;;;;;8.42;99.06;101219.94;5054605;28;20442;-68
2023/01/10 11:02:22;;;;;;;6.90;2.33;;;;;;;8.39;97.67;101219.66;5054273;28;20536;-68
2023/01/10 11:04:50;;;;;;;9.73;3.07;;;;;;;8.35;98.09;101216.66;5054236;28;20904;-68
2023/01/10 11:07:20;;;;;;;5.60;1.97;;;;;;;8.26;97.39;101218.28;5054187;28;20460;-69
2023/01/10 11:09:51;;;;;;;8.17;1.80;;;;;;;8.37;95.88;101211.00;5054432;28;20545;-68
2023/01/10 11:12:21;;;;;;;9.17;2.70;;;;;;;8.38;96.05;101204.56;5054097;28;20521;-68
2023/01/10 11:14:48;;;;;;;6.03;2.03;;;;;;;8.38;96.83;101202.66;5054084;28;20442;-68
2023/01/10 11:17:21;;;;;;;12.07;2.40;;;;;;;8.53;97.66;101204.53;5054161;28;20450;-68
2023/01/10 11:19:58;;;;;;;6.60;1.90;;;;;;;8.66;97.56;101203.16;5054241;28;20505;-68
2023/01/10 11:22:28;;;;;;;21.33;3.00;;;;;;;8.73;97.26;101215.31;5053788;28;20437;-68
2023/01/10 11:24:58;;;;;;;9.57;2.50;;;;;;;8.72;96.33;101229.06;5053762;28;20466;-68
2023/01/10 11:27:28;;;;;;;15.23;3.00;;;;;;;8.87;94.82;101215.53;5053971;28;20534;-68
2023/01/10 11:29:58;;;;;;;7.27;2.37;;;;;;;8.93;94.84;101205.53;5053634;28;21109;-68
2023/01/10 11:32:32;;;;;;;9.20;2.50;;;;;;;8.96;95.75;101197.69;5053592;28;20924;-68
2023/01/10 11:35:02;;;;;;;6.53;2.40;;;;;;;8.98;95.31;101205.50;5053559;28;20801;-68
2023/01/10 11:37:32;;;;;;;9.10;2.60;;;;;;;8.87;94.59;101223.66;5053727;28;20445;-69
2023/01/10 11:40:17;;;;;;;6.70;2.07;;;;;;;8.92;94.96;101223.63;5053527;28;20480;-68
2023/01/10 11:42:44;;;;;;;8.17;2.53;;;;;;;8.97;95.21;101239.81;5053811;28;20441;-68
2023/01/10 11:45:26;;;;;;;6.73;2.23;;;;;;;9.01;93.21;101234.69;5053663;28;20449;-68